International Virtual Aviation Organisation

Russian Federation and Kazakhstan MCD

 
UIII 281400Z 06002MPS 7000 NSC M21/M23 Q1036 R12/60D NOSIG RMK QFE734/0979
QNH:(hPa/inHg/mmHg)1036 / 30.59 / 777
QFE:(hPa/inHg/mmHg)974 / 28.75 / 730
Temperature-21
Dew Point-23
Visibility7000
Weather
Cloud Cover
Transition Height1100 m./5300 ft.
Transition LevelFL60
SQUAWK